Time;durP1;ratioP1;P1;durP2;ratioP2;P2;SDS_P1;SDS_P2;PMS_P1;PMS_P2;Temp;Humidity;BMP_temperature;BMP_pressure;BME280_temperature;BME280_humidity;BME280_pressure;Samples;Min_cycle;Max_cycle;Signal;HPM_P1;HPM_P2
2021/07/19 00:01:56;;;;;;;1999.90;999.90;;;;;;;22.46;73.65;98170.13;5049550;28;20361;-65
2021/07/19 00:04:23;;;;;;;1999.90;999.90;;;;;;;22.42;73.48;98158.13;5053196;28;20140;-65
2021/07/19 00:06:50;;;;;;;1999.90;999.90;;;;;;;22.20;74.65;98157.38;5053180;28;20067;-65
2021/07/19 00:09:17;;;;;;;1999.90;999.90;;;;;;;22.08;75.04;98171.91;5053963;28;20102;-65
2021/07/19 00:11:44;;;;;;;1999.90;999.90;;;;;;;22.09;74.80;98168.69;5054707;28;20114;-65
2021/07/19 00:14:11;;;;;;;1999.90;999.90;;;;;;;22.07;74.65;98173.91;5053335;28;20107;-65
2021/07/19 00:16:38;;;;;;;1999.90;999.90;;;;;;;21.86;75.54;98171.16;5053655;28;20376;-65
2021/07/19 00:19:05;;;;;;;1999.90;999.90;;;;;;;21.99;75.14;98170.31;5054658;28;20053;-65
2021/07/19 00:21:32;;;;;;;1999.90;999.90;;;;;;;22.04;75.12;98173.94;5053533;28;20413;-65
2021/07/19 00:23:58;;;;;;;1999.90;999.90;;;;;;;22.33;74.04;98181.09;5053599;28;20103;-65
2021/07/19 00:26:25;;;;;;;1999.90;999.90;;;;;;;22.33;73.52;98188.75;5054507;28;20045;-65
2021/07/19 00:28:52;;;;;;;1999.90;999.90;;;;;;;22.23;74.58;98183.91;5053191;28;20076;-65
2021/07/19 00:31:20;;;;;;;1999.90;999.90;;;;;;;22.42;73.24;98191.09;5053383;28;20045;-65
2021/07/19 00:33:48;;;;;;;1999.90;999.90;;;;;;;22.54;73.21;98195.47;5054318;28;20049;-65
2021/07/19 00:36:14;;;;;;;1999.90;999.90;;;;;;;22.35;73.81;98199.59;5052400;28;20045;-65
2021/07/19 00:38:41;;;;;;;1999.90;999.90;;;;;;;22.57;73.40;98200.28;5053115;28;20111;-65
2021/07/19 00:41:07;;;;;;;1999.90;999.90;;;;;;;22.64;73.12;98209.53;5053828;28;20492;-65
2021/07/19 00:43:34;;;;;;;1999.90;999.90;;;;;;;22.69;73.10;98199.81;5053358;28;20110;-65
2021/07/19 00:46:00;;;;;;;1999.90;999.90;;;;;;;22.62;72.86;98203.47;5052985;28;20063;-65
2021/07/19 00:48:27;;;;;;;1999.90;999.90;;;;;;;22.77;72.48;98198.56;5053710;28;20049;-65
2021/07/19 00:50:54;;;;;;;1999.90;999.90;;;;;;;22.62;72.88;98208.31;5053331;28;20045;-64
2021/07/19 00:53:20;;;;;;;1999.90;999.90;;;;;;;22.49;73.54;98202.31;5052446;28;20063;-65
2021/07/19 00:55:48;;;;;;;1999.90;999.90;;;;;;;22.37;74.42;98200.78;5052719;28;20049;-64
2021/07/19 00:58:17;;;;;;;1999.90;999.90;;;;;;;22.64;73.28;98208.69;5052091;28;20061;-64
2021/07/19 01:00:47;;;;;;;1999.90;999.90;;;;;;;22.46;73.68;98212.41;5051210;28;20049;-64
2021/07/19 01:03:15;;;;;;;1999.90;999.90;;;;;;;22.37;74.36;98206.41;5048785;28;20044;-64
2021/07/19 01:05:43;;;;;;;1999.90;999.90;;;;;;;22.69;72.82;98211.09;5052243;28;20049;-64
2021/07/19 01:08:10;;;;;;;1999.90;999.90;;;;;;;22.37;74.12;98206.41;5051190;28;20107;-64
2021/07/19 01:10:37;;;;;;;1999.90;999.90;;;;;;;22.62;73.55;98213.94;5051857;28;20044;-64
2021/07/19 01:13:06;;;;;;;1999.90;999.90;;;;;;;22.77;72.62;98209.84;5051620;28;20102;-65
2021/07/19 01:15:34;;;;;;;1999.90;999.90;;;;;;;22.57;73.32;98218.00;5051028;28;20349;-64
2021/07/19 01:18:01;;;;;;;1999.90;999.90;;;;;;;22.45;74.37;98212.81;5051714;28;20049;-65
2021/07/19 01:20:31;;;;;;;1999.90;999.90;;;;;;;22.65;72.99;98221.59;5052515;28;20044;-65
2021/07/19 01:23:21;;;;;;;1999.90;999.90;;;;;;;22.50;73.69;98227.28;5050764;28;20041;-65
2021/07/19 01:26:09;;;;;;;1999.90;999.90;;;;;;;22.38;74.37;98215.69;5050875;28;20083;-64
2021/07/19 01:28:49;;;;;;;1999.90;999.90;;;;;;;22.19;75.00;98223.34;5040918;28;20049;-64
2021/07/19 01:31:21;;;;;;;1999.90;999.90;;;;;;;22.13;75.26;98222.94;5051607;28;20358;-64
2021/07/19 01:33:53;;;;;;;1999.90;999.90;;;;;;;22.41;74.49;98224.09;5050919;28;20128;-64
2021/07/19 01:36:23;;;;;;;1999.90;999.90;;;;;;;22.39;74.36;98220.06;5051345;28;20099;-64
2021/07/19 01:38:51;;;;;;;1999.90;999.90;;;;;;;22.45;74.20;98224.06;5051605;28;20115;-65
2021/07/19 01:41:20;;;;;;;1999.90;999.90;;;;;;;22.10;75.57;98222.97;5050583;28;20508;-64
2021/07/19 01:43:47;;;;;;;1999.90;999.90;;;;;;;22.30;74.74;98220.47;5050882;28;20041;-64
2021/07/19 01:46:14;;;;;;;1999.90;999.90;;;;;;;22.29;74.34;98224.53;5051585;28;20385;-64
2021/07/19 01:48:42;;;;;;;1999.90;999.90;;;;;;;21.85;76.43;98221.00;5050806;28;20103;-64
2021/07/19 01:51:10;;;;;;;1999.90;999.90;;;;;;;22.01;75.44;98219.78;5050795;28;20507;-64
2021/07/19 01:53:37;;;;;;;1999.90;999.90;;;;;;;21.83;76.72;98222.63;5051835;28;20424;-64
2021/07/19 01:56:04;;;;;;;1999.90;999.90;;;;;;;22.10;75.42;98215.31;5049695;28;20433;-65
2021/07/19 01:58:31;;;;;;;1999.90;999.90;;;;;;;22.03;75.44;98223.78;5013069;28;1095168;-64
2021/07/19 02:00:59;;;;;;;1999.90;999.90;;;;;;;21.88;75.90;98216.59;5052443;28;20114;-65
2021/07/19 02:03:26;;;;;;;1999.90;999.90;;;;;;;21.65;76.94;98217.03;5050816;28;20168;-64
2021/07/19 02:05:56;;;;;;;1999.90;999.90;;;;;;;21.67;76.82;98221.03;5051601;28;20378;-64
2021/07/19 02:08:24;;;;;;;1999.90;999.90;;;;;;;21.80;76.44;98212.97;5052034;28;20045;-64
2021/07/19 02:10:52;;;;;;;1999.90;999.90;;;;;;;21.88;76.49;98219.41;5051702;28;20044;-64
2021/07/19 02:13:21;;;;;;;1999.90;999.90;;;;;;;21.87;76.48;98223.41;5050713;28;20072;-64
2021/07/19 02:15:51;;;;;;;1999.90;999.90;;;;;;;21.69;77.71;98218.63;5052185;28;20141;-64
2021/07/19 02:18:23;;;;;;;1999.90;999.90;;;;;;;21.76;77.20;98217.81;5051951;28;20122;-64
2021/07/19 02:20:52;;;;;;;1999.90;999.90;;;;;;;21.78;77.43;98221.84;5050881;28;20056;-64
2021/07/19 02:23:19;;;;;;;1999.90;999.90;;;;;;;21.81;77.01;98229.47;5051088;28;20045;-64
2021/07/19 02:25:46;;;;;;;1999.90;999.90;;;;;;;21.86;76.75;98230.28;5051241;28;20118;-65
2021/07/19 02:28:13;;;;;;;1999.90;999.90;;;;;;;21.70;77.23;98225.06;5050611;28;20148;-64
2021/07/19 02:30:42;;;;;;;1999.90;999.90;;;;;;;21.47;78.64;98220.63;5051519;28;20049;-64
2021/07/19 02:33:11;;;;;;;1999.90;999.90;;;;;;;21.60;77.86;98218.22;5051580;28;20045;-64
2021/07/19 02:35:41;;;;;;;1999.90;999.90;;;;;;;21.51;78.51;98223.47;5049823;28;20107;-64
2021/07/19 02:38:10;;;;;;;1999.90;999.90;;;;;;;21.34;78.74;98216.59;5050668;28;20110;-64
2021/07/19 02:40:38;;;;;;;1999.90;999.90;;;;;;;21.59;78.15;98225.06;5050567;28;20079;-65
2021/07/19 02:43:06;;;;;;;1999.90;999.90;;;;;;;21.35;78.93;98229.44;5050426;28;20049;-64
2021/07/19 02:45:36;;;;;;;1999.90;999.90;;;;;;;21.51;78.19;98224.28;5050883;28;20099;-65
2021/07/19 02:48:05;;;;;;;1999.90;999.90;;;;;;;21.53;78.18;98219.03;5051103;28;20060;-64
2021/07/19 02:50:33;;;;;;;1999.90;999.90;;;;;;;21.40;77.91;98223.44;5050705;28;20114;-64
2021/07/19 02:53:02;;;;;;;1999.90;999.90;;;;;;;21.50;77.39;98222.66;5050507;28;20048;-64
2021/07/19 02:55:31;;;;;;;1999.90;999.90;;;;;;;21.43;78.67;98225.44;5051201;28;20056;-64
2021/07/19 02:58:04;;;;;;;1999.90;999.90;;;;;;;21.59;77.42;98222.25;5044674;28;20072;-64
2021/07/19 03:00:33;;;;;;;1999.90;999.90;;;;;;;21.77;76.48;98231.47;5042928;28;20045;-64
2021/07/19 03:03:07;;;;;;;1999.90;999.90;;;;;;;21.40;77.91;98227.03;5045654;28;20346;-64
2021/07/19 03:05:42;;;;;;;1999.90;999.90;;;;;;;21.50;77.48;98227.47;5050865;28;20131;-64
2021/07/19 03:08:11;;;;;;;1999.90;999.90;;;;;;;21.39;77.73;98228.25;5049468;28;20519;-65
2021/07/19 03:10:39;;;;;;;1999.90;999.90;;;;;;;21.53;77.42;98221.06;5050398;28;20052;-65
2021/07/19 03:13:09;;;;;;;1999.90;999.90;;;;;;;21.67;76.60;98221.03;5051076;28;20049;-64
2021/07/19 03:15:39;;;;;;;1999.90;999.90;;;;;;;21.69;76.95;98221.44;5049692;28;20049;-65
2021/07/19 03:18:09;;;;;;;1999.90;999.90;;;;;;;21.89;76.09;98229.44;5050323;28;20053;-64
2021/07/19 03:20:40;;;;;;;1999.90;999.90;;;;;;;22.03;75.53;98218.16;5050057;28;20438;-65
2021/07/19 03:23:11;;;;;;;1999.90;999.90;;;;;;;22.09;75.41;98213.72;5049309;28;20095;-64
2021/07/19 03:25:38;;;;;;;1999.90;999.90;;;;;;;21.92;76.05;98223.00;5050029;28;20798;-64
2021/07/19 03:28:06;;;;;;;1999.90;999.90;;;;;;;21.97;76.14;98216.97;5050913;28;20438;-65
2021/07/19 03:30:34;;;;;;;1999.90;999.90;;;;;;;21.78;76.63;98216.19;5049289;28;20049;-64
2021/07/19 03:33:01;;;;;;;1999.90;999.90;;;;;;;21.83;76.74;98214.19;5049626;28;20088;-65
2021/07/19 03:35:31;;;;;;;1999.90;999.90;;;;;;;21.81;76.56;98215.38;5049941;28;20049;-64
2021/07/19 03:37:59;;;;;;;1999.90;999.90;;;;;;;21.81;77.14;98226.66;5048879;28;20048;-64
2021/07/19 03:40:26;;;;;;;1999.90;999.90;;;;;;;21.89;76.86;98221.00;5049834;28;20107;-64
2021/07/19 03:42:57;;;;;;;1999.90;999.90;;;;;;;21.74;77.38;98214.59;5050311;28;20430;-65
2021/07/19 03:45:25;;;;;;;1999.90;999.90;;;;;;;21.81;76.72;98228.66;5049443;28;20049;-64
2021/07/19 03:47:52;;;;;;;1999.90;999.90;;;;;;;21.76;77.17;98227.03;5048187;28;20045;-65
2021/07/19 03:50:20;;;;;;;1999.90;999.90;;;;;;;21.94;76.85;98226.22;5049744;28;20106;-65
2021/07/19 03:52:47;;;;;;;1999.90;999.90;;;;;;;21.85;77.07;98221.00;5050168;28;20091;-64
2021/07/19 03:55:15;;;;;;;1999.90;999.90;;;;;;;21.86;76.77;98222.63;5049376;28;20048;-65
2021/07/19 03:57:43;;;;;;;1999.90;999.90;;;;;;;21.60;77.70;98227.47;5049776;28;20114;-65
2021/07/19 04:00:15;;;;;;;1999.90;999.90;;;;;;;21.27;78.95;98229.47;5040796;28;20064;-64
2021/07/19 04:02:44;;;;;;;1999.90;999.90;;;;;;;21.66;77.78;98230.69;5043375;28;20098;-64
2021/07/19 04:05:15;;;;;;;1999.90;999.90;;;;;;;21.82;77.31;98224.63;5044870;28;20484;-64
2021/07/19 04:07:45;;;;;;;1999.90;999.90;;;;;;;21.86;77.18;98230.28;5045724;28;20434;-65
2021/07/19 04:10:14;;;;;;;1999.90;999.90;;;;;;;21.81;77.54;98225.84;5043727;28;20146;-65
2021/07/19 04:12:43;;;;;;;1999.90;999.90;;;;;;;22.07;76.57;98229.41;5044903;28;20049;-64
2021/07/19 04:15:10;;;;;;;1999.90;999.90;;;;;;;22.18;76.16;98224.53;5044805;28;20080;-65
2021/07/19 04:17:37;;;;;;;1999.90;999.90;;;;;;;22.17;76.53;98226.56;5044312;28;20099;-65
2021/07/19 04:20:07;;;;;;;1999.90;999.90;;;;;;;22.34;75.30;98229.75;5041975;28;20049;-65
2021/07/19 04:22:34;;;;;;;1999.90;999.90;;;;;;;22.23;76.07;98235.41;5045775;28;21449;-65
2021/07/19 04:25:07;;;;;;;1999.90;999.90;;;;;;;22.24;75.52;98241.81;5044140;28;20479;-65
2021/07/19 04:27:36;;;;;;;1999.90;999.90;;;;;;;22.39;75.30;98246.25;5045247;28;20073;-64
2021/07/19 04:30:04;;;;;;;1999.90;999.90;;;;;;;22.56;74.67;98246.59;5044199;28;20561;-65
2021/07/19 04:32:31;;;;;;;1999.90;999.90;;;;;;;22.66;73.64;98245.75;5044208;28;20079;-65
2021/07/19 04:34:58;;;;;;;1999.90;999.90;;;;;;;22.61;74.16;98251.78;5044695;28;20086;-64
2021/07/19 04:37:25;;;;;;;1999.90;999.90;;;;;;;22.31;75.39;98247.44;5043863;28;20052;-64
2021/07/19 04:39:52;;;;;;;1999.90;999.90;;;;;;;22.42;74.55;98244.59;5043847;28;20126;-64
2021/07/19 04:42:19;;;;;;;1999.90;999.90;;;;;;;22.50;74.50;98249.81;5045610;28;20044;-65
2021/07/19 04:44:46;;;;;;;1999.90;999.90;;;;;;;22.22;75.13;98241.44;5044882;28;20428;-64
2021/07/19 04:47:12;;;;;;;1999.90;999.90;;;;;;;21.92;77.02;98246.31;5044216;28;20142;-64
2021/07/19 04:49:40;;;;;;;1999.90;999.90;;;;;;;21.98;76.45;98241.09;5049116;28;20045;-65
2021/07/19 04:52:07;;;;;;;1999.90;999.90;;;;;;;22.04;76.63;98231.03;5049826;28;20084;-65
2021/07/19 04:54:39;;;;;;;1999.90;999.90;;;;;;;22.21;76.38;98242.63;5048714;28;20075;-64
2021/07/19 04:57:13;;;;;;;1999.90;999.90;;;;;;;22.51;75.48;98234.53;5049949;28;20079;-65
2021/07/19 04:59:42;;;;;;;1999.90;999.90;;;;;;;22.75;73.70;98234.03;5049896;28;20045;-64
2021/07/19 05:02:12;;;;;;;1999.90;999.90;;;;;;;22.71;74.20;98236.84;5046555;28;20084;-64
2021/07/19 05:04:40;;;;;;;1999.90;999.90;;;;;;;22.45;75.07;98236.16;5049133;28;20052;-64
2021/07/19 05:07:10;;;;;;;1999.90;999.90;;;;;;;22.68;73.89;98243.31;5050539;28;20056;-65
2021/07/19 05:09:40;;;;;;;1999.90;999.90;;;;;;;22.37;73.30;98228.94;5048912;28;20049;-65
2021/07/19 05:12:15;;;;;;;1999.90;999.90;;;;;;;22.99;73.00;98240.72;5048915;28;20045;-66
2021/07/19 05:14:42;;;;;;;1999.90;999.90;;;;;;;22.65;73.00;98244.91;5048827;28;20469;-64
2021/07/19 05:17:11;;;;;;;1999.90;999.90;;;;;;;22.54;73.97;98247.00;5049075;28;20318;-65
2021/07/19 05:19:39;;;;;;;1999.90;999.90;;;;;;;22.77;73.94;98246.47;5047263;28;20041;-64
2021/07/19 05:22:10;;;;;;;1999.90;999.90;;;;;;;22.95;73.13;98249.19;5048999;28;20053;-65
2021/07/19 05:24:37;;;;;;;1999.90;999.90;;;;;;;22.44;73.45;98248.63;5049421;28;20052;-65
2021/07/19 05:27:06;;;;;;;1999.90;999.90;;;;;;;22.79;72.82;98243.25;5048547;28;20080;-66
2021/07/19 05:29:38;;;;;;;1999.90;999.90;;;;;;;22.79;70.92;98244.06;5049779;28;20138;-66
2021/07/19 05:32:06;;;;;;;1999.90;999.90;;;;;;;22.31;73.98;98239.81;5049214;28;20057;-65
2021/07/19 05:34:33;;;;;;;1999.90;999.90;;;;;;;22.68;72.13;98237.66;5046440;28;20051;-65
2021/07/19 05:37:00;;;;;;;1999.90;999.90;;;;;;;22.92;70.74;98235.13;5049371;28;20142;-65
2021/07/19 05:39:28;;;;;;;1999.90;999.90;;;;;;;23.35;69.11;98240.50;5049759;28;20091;-65
2021/07/19 05:41:54;;;;;;;1999.90;999.90;;;;;;;23.10;69.96;98241.47;5047802;28;20403;-66
2021/07/19 05:44:21;;;;;;;1999.90;999.90;;;;;;;23.68;68.20;98238.22;5048960;28;20641;-66
2021/07/19 05:46:48;;;;;;;1999.90;999.90;;;;;;;23.19;68.79;98241.84;5049346;28;20292;-65
2021/07/19 05:49:14;;;;;;;1999.90;999.90;;;;;;;22.90;70.34;98237.56;5048263;28;20045;-65
2021/07/19 05:51:41;;;;;;;1999.90;999.90;;;;;;;22.93;68.58;98231.91;5048189;28;20348;-65
2021/07/19 05:54:07;;;;;;;1999.90;999.90;;;;;;;22.75;70.25;98236.84;5049041;28;20511;-65
2021/07/19 05:56:34;;;;;;;1999.90;999.90;;;;;;;22.67;69.19;98242.50;5047555;28;20095;-66
2021/07/19 05:59:02;;;;;;;1999.90;999.90;;;;;;;23.16;69.45;98244.66;5048689;28;20283;-65
2021/07/19 06:01:28;;;;;;;1999.90;999.90;;;;;;;22.97;68.15;98249.59;5046632;28;20107;-65
2021/07/19 06:03:55;;;;;;;1999.90;999.90;;;;;;;23.25;67.77;98244.22;5047798;28;20493;-65
2021/07/19 06:06:22;;;;;;;1999.90;999.90;;;;;;;23.58;67.62;98244.75;5048858;28;20052;-65
2021/07/19 06:08:48;;;;;;;1999.90;999.90;;;;;;;23.83;65.82;98258.66;5048983;28;20150;-65
2021/07/19 06:11:15;;;;;;;1999.90;999.90;;;;;;;24.40;64.54;98263.75;5047882;28;20444;-66
2021/07/19 06:13:41;;;;;;;1999.90;999.90;;;;;;;23.96;65.33;98261.78;5048308;28;20064;-65
2021/07/19 06:16:09;;;;;;;1999.90;999.90;;;;;;;24.45;64.59;98270.94;5047833;28;20053;-65
2021/07/19 06:18:36;;;;;;;1999.90;999.90;;;;;;;24.24;64.50;98269.97;5047540;28;20136;-65
2021/07/19 06:21:03;;;;;;;1999.90;999.90;;;;;;;23.84;65.58;98272.34;5047791;28;20052;-65
2021/07/19 06:23:29;;;;;;;1999.90;999.90;;;;;;;23.26;66.93;98262.75;5048484;28;20049;-65
2021/07/19 06:25:56;;;;;;;1999.90;999.90;;;;;;;23.42;67.21;98260.19;5046843;28;20044;-66
2021/07/19 06:28:22;;;;;;;1999.90;999.90;;;;;;;23.74;65.78;98259.13;5048703;28;20114;-65
2021/07/19 06:30:53;;;;;;;1999.90;999.90;;;;;;;24.06;64.18;98266.53;5048894;28;20114;-65
2021/07/19 06:33:20;;;;;;;1999.90;999.90;;;;;;;24.21;63.84;98267.97;5046956;28;20270;-65
2021/07/19 06:35:47;;;;;;;1999.90;999.90;;;;;;;24.17;63.87;98266.41;5047930;28;20045;-65
2021/07/19 06:38:14;;;;;;;1999.90;999.90;;;;;;;24.41;62.58;98273.00;5049102;28;20106;-65
2021/07/19 06:40:40;;;;;;;1999.90;999.90;;;;;;;24.14;63.13;98273.69;5046107;28;20106;-64
2021/07/19 06:43:07;;;;;;;1999.90;999.90;;;;;;;24.39;63.39;98272.63;5045899;28;20103;-64
2021/07/19 06:45:33;;;;;;;1999.90;999.90;;;;;;;24.66;60.57;98274.78;5048208;28;20350;-64
2021/07/19 06:48:00;;;;;;;1999.90;999.90;;;;;;;24.57;61.15;98284.53;5047424;28;20057;-65
2021/07/19 06:50:26;;;;;;;1999.90;999.90;;;;;;;24.51;61.69;98282.59;5047244;28;20052;-64
2021/07/19 06:52:53;;;;;;;1999.90;999.90;;;;;;;24.56;63.01;98282.94;5047970;28;20045;-64
2021/07/19 06:55:19;;;;;;;1999.90;999.90;;;;;;;25.03;60.21;98275.91;5047380;28;20049;-65
2021/07/19 06:57:46;;;;;;;1999.90;999.90;;;;;;;25.21;58.85;98270.00;5046778;28;20083;-65
2021/07/19 07:00:13;;;;;;;1999.90;999.90;;;;;;;24.96;58.12;98268.31;5048235;28;20045;-64
2021/07/19 07:02:39;;;;;;;1999.90;999.90;;;;;;;25.06;59.21;98270.19;5046787;28;20438;-64
2021/07/19 07:05:07;;;;;;;1999.90;999.90;;;;;;;24.55;60.14;98280.53;5047276;28;20053;-66
2021/07/19 07:07:34;;;;;;;1999.90;999.90;;;;;;;24.60;59.19;98269.56;5048027;28;20331;-65
2021/07/19 07:10:03;;;;;;;1999.90;999.90;;;;;;;24.71;58.98;98274.28;5046681;28;20496;-65
2021/07/19 07:12:29;;;;;;;1999.90;999.90;;;;;;;24.53;58.71;98278.09;5046365;28;20438;-65
2021/07/19 07:14:56;;;;;;;1999.90;999.90;;;;;;;24.82;59.45;98277.78;5046975;28;20110;-65
2021/07/19 07:17:22;;;;;;;1999.90;999.90;;;;;;;25.60;57.96;98275.06;5047522;28;20053;-64
2021/07/19 07:19:51;;;;;;;1999.90;999.90;;;;;;;25.29;57.82;98280.78;5047153;28;20300;-65
2021/07/19 07:22:18;;;;;;;1999.90;999.90;;;;;;;24.70;59.52;98281.19;5038107;28;20053;-64
2021/07/19 07:24:45;;;;;;;1999.90;999.90;;;;;;;24.84;60.45;98278.16;5047384;28;20748;-64
2021/07/19 07:27:12;;;;;;;1999.90;999.90;;;;;;;25.06;61.09;98281.50;5046570;28;20472;-64
2021/07/19 07:29:39;;;;;;;1999.90;999.90;;;;;;;25.74;57.95;98281.72;5047790;28;20098;-65
2021/07/19 07:32:07;;;;;;;1999.90;999.90;;;;;;;26.66;55.55;98286.94;5046414;28;20052;-64
2021/07/19 07:34:35;;;;;;;1999.90;999.90;;;;;;;25.55;58.46;98289.72;5046571;28;20056;-65
2021/07/19 07:37:02;;;;;;;1999.90;999.90;;;;;;;25.00;56.52;98282.41;5046034;28;20053;-64
2021/07/19 07:39:29;;;;;;;1999.90;999.90;;;;;;;25.28;55.38;98279.19;5047613;28;20056;-66
2021/07/19 07:41:56;;;;;;;1999.90;999.90;;;;;;;25.00;56.54;98276.75;5046742;28;20076;-65
2021/07/19 07:44:22;;;;;;;1999.90;999.90;;;;;;;24.16;58.89;98285.41;5046895;28;20045;-65
2021/07/19 07:46:49;;;;;;;1999.90;999.90;;;;;;;25.26;57.67;98290.13;5047774;28;20458;-65
2021/07/19 07:49:19;;;;;;;1999.90;999.90;;;;;;;25.48;56.35;98279.28;5046491;28;20544;-65
2021/07/19 07:51:46;;;;;;;1999.90;999.90;;;;;;;24.93;55.74;98294.63;5043123;28;20053;-66
2021/07/19 07:54:12;;;;;;;1999.90;999.90;;;;;;;24.74;57.89;98291.22;5047593;28;20056;-65
2021/07/19 07:56:39;;;;;;;1999.90;999.90;;;;;;;25.01;53.16;98287.66;5046309;28;20562;-65
2021/07/19 07:59:24;;;;;;;1999.90;999.90;;;;;;;24.81;56.04;98290.31;5045153;28;20338;-65
2021/07/19 08:01:50;;;;;;;1999.90;999.90;;;;;;;25.34;57.75;98292.84;5046111;28;20041;-65
2021/07/19 08:04:17;;;;;;;1999.90;999.90;;;;;;;26.29;52.90;98288.06;5046513;28;20049;-65
2021/07/19 08:06:44;;;;;;;1999.90;999.90;;;;;;;26.39;53.61;98291.94;5046478;28;20452;-65
2021/07/19 08:09:11;;;;;;;1999.90;999.90;;;;;;;26.71;53.67;98285.66;5046995;28;20059;-65
2021/07/19 08:11:38;;;;;;;1999.90;999.90;;;;;;;26.63;53.59;98284.97;5046552;28;20446;-65
2021/07/19 08:14:04;;;;;;;1999.90;999.90;;;;;;;26.28;51.28;98284.44;5046120;28;20445;-67
2021/07/19 08:16:36;;;;;;;1999.90;999.90;;;;;;;24.54;55.55;98290.22;5046421;28;20048;-66
2021/07/19 08:19:05;;;;;;;1999.90;999.90;;;;;;;24.65;54.05;98290.13;5046563;28;20053;-64
2021/07/19 08:21:32;;;;;;;1999.90;999.90;;;;;;;25.54;53.79;98279.59;5045731;28;20060;-65
2021/07/19 08:24:17;;;;;;;1999.90;999.90;;;;;;;27.01;52.63;98281.75;5039610;28;20052;-65
2021/07/19 08:26:45;;;;;;;1999.90;999.90;;;;;;;26.92;50.82;98287.25;5050882;28;20534;-65
2021/07/19 08:29:12;;;;;;;1999.90;999.90;;;;;;;27.54;51.36;98287.50;5049921;28;20087;-65
2021/07/19 08:31:44;;;;;;;1999.90;999.90;;;;;;;27.41;50.75;98287.38;5050327;28;20087;-65
2021/07/19 08:34:11;;;;;;;1999.90;999.90;;;;;;;27.77;48.65;98283.66;5050795;28;20472;-64
2021/07/19 08:36:37;;;;;;;1999.90;999.90;;;;;;;27.92;51.02;98283.31;5049659;28;20132;-65
2021/07/19 08:39:05;;;;;;;1999.90;999.90;;;;;;;26.27;51.12;98287.69;5049773;28;20415;-65
2021/07/19 08:41:32;;;;;;;1999.90;999.90;;;;;;;26.30;50.30;98287.63;5050942;28;20144;-66
2021/07/19 08:44:04;;;;;;;1999.90;999.90;;;;;;;26.14;52.08;98287.53;5049314;28;20076;-65
2021/07/19 08:46:31;;;;;;;1999.90;999.90;;;;;;;26.25;51.72;98284.50;5049541;28;20080;-65
2021/07/19 08:48:57;;;;;;;1999.90;999.90;;;;;;;26.89;52.47;98282.44;5050809;28;20564;-65
2021/07/19 08:51:25;;;;;;;1999.90;999.90;;;;;;;27.64;48.08;98279.94;5049379;28;20087;-65
2021/07/19 08:53:52;;;;;;;1999.90;999.90;;;;;;;27.27;48.21;98279.16;5049844;28;20497;-65
2021/07/19 08:56:19;;;;;;;1999.90;999.90;;;;;;;26.94;50.32;98287.59;5050290;28;20079;-65
2021/07/19 08:58:46;;;;;;;1999.90;999.90;;;;;;;27.43;48.90;98274.78;5049339;28;20092;-65
2021/07/19 09:01:13;;;;;;;1999.90;999.90;;;;;;;27.64;46.98;98284.81;5048538;28;20419;-65
2021/07/19 09:03:40;;;;;;;1999.90;999.90;;;;;;;27.63;47.76;98286.06;5049781;28;20359;-65
2021/07/19 09:06:10;;;;;;;1999.90;999.90;;;;;;;27.57;44.45;98274.44;5049325;28;20049;-66
2021/07/19 09:08:47;;;;;;;1999.90;999.90;;;;;;;27.57;47.22;98275.25;5048601;28;20057;-65
2021/07/19 09:11:13;;;;;;;1999.90;999.90;;;;;;;28.15;49.95;98273.00;5049314;28;20053;-65
2021/07/19 09:13:58;;;;;;;1999.90;999.90;;;;;;;27.28;48.29;98280.75;5050104;28;20337;-65
2021/07/19 09:16:26;;;;;;;1999.90;999.90;;;;;;;27.58;47.72;98267.50;5048498;28;20052;-65
2021/07/19 09:19:07;;;;;;;1999.90;999.90;;;;;;;27.90;48.02;98268.75;5049449;28;20056;-65
2021/07/19 09:21:36;;;;;;;1999.90;999.90;;;;;;;27.86;48.52;98270.88;5049226;28;20080;-65
2021/07/19 09:24:15;;;;;;;1999.90;999.90;;;;;;;27.70;47.29;98272.47;5048455;28;20453;-65
2021/07/19 09:26:43;;;;;;;1999.90;999.90;;;;;;;27.97;46.61;98265.75;5048779;28;20080;-66
2021/07/19 09:29:13;;;;;;;1999.90;999.90;;;;;;;28.22;48.07;98262.22;5048654;28;20445;-65
2021/07/19 09:31:42;;;;;;;1999.90;999.90;;;;;;;26.53;50.92;98261.28;5048819;28;20118;-66
2021/07/19 09:34:14;;;;;;;1999.90;999.90;;;;;;;26.55;49.11;98252.31;5047697;28;20488;-65
2021/07/19 09:36:59;;;;;;;1999.90;999.90;;;;;;;27.11;50.57;98253.59;5049797;28;20076;-65
2021/07/19 09:39:30;;;;;;;1999.90;999.90;;;;;;;27.28;48.60;98254.44;5048548;28;20450;-65
2021/07/19 09:42:12;;;;;;;1999.90;999.90;;;;;;;27.49;48.60;98255.97;5048541;28;20445;-65
2021/07/19 09:44:40;;;;;;;1999.90;999.90;;;;;;;27.82;48.18;98259.59;5037904;28;20110;-65
2021/07/19 09:47:13;;;;;;;1999.90;999.90;;;;;;;27.30;48.98;98254.78;5049292;28;20075;-64
2021/07/19 09:49:40;;;;;;;1999.90;999.90;;;;;;;28.81;49.10;98260.19;5048026;28;20103;-65
2021/07/19 09:52:09;;;;;;;1999.90;999.90;;;;;;;28.59;45.13;98256.34;5048085;28;20130;-65
2021/07/19 09:54:46;;;;;;;1999.90;999.90;;;;;;;29.23;49.14;98255.72;5049196;28;20056;-65
2021/07/19 09:57:13;;;;;;;1999.90;999.90;;;;;;;27.83;45.38;98246.22;5047442;28;20118;-65
2021/07/19 09:59:50;;;;;;;1999.90;999.90;;;;;;;26.66;50.29;98246.44;5048157;28;20085;-65
2021/07/19 10:02:40;;;;;;;1999.90;999.90;;;;;;;27.13;48.22;98240.56;5039329;28;20091;-66
2021/07/19 10:05:09;;;;;;;1999.90;999.90;;;;;;;28.63;49.26;98240.81;5049018;28;20056;-65
2021/07/19 10:07:46;;;;;;;1999.90;999.90;;;;;;;26.87;47.40;98242.34;5047405;28;20116;-66
2021/07/19 10:10:15;;;;;;;1999.90;999.90;;;;;;;27.01;50.94;98236.38;5047860;28;20049;-65
2021/07/19 10:12:42;;;;;;;1999.90;999.90;;;;;;;27.04;49.83;98238.31;5049254;28;20183;-66
2021/07/19 10:15:11;;;;;;;1999.90;999.90;;;;;;;27.23;50.25;98233.84;5048063;28;20094;-65
2021/07/19 10:17:54;;;;;;;1999.90;999.90;;;;;;;27.50;50.75;98232.03;5047343;28;20461;-65
2021/07/19 10:20:21;;;;;;;1999.90;999.90;;;;;;;28.81;46.74;98228.91;5048751;28;20053;-65
2021/07/19 10:22:48;;;;;;;1999.90;999.90;;;;;;;29.04;47.89;98229.81;5048603;28;20064;-65
2021/07/19 10:25:15;;;;;;;1999.90;999.90;;;;;;;29.40;43.77;98225.88;5046276;28;20041;-65
2021/07/19 10:27:43;;;;;;;1999.90;999.90;;;;;;;29.37;46.50;98218.22;5048338;28;20076;-65
2021/07/19 10:30:10;;;;;;;1999.90;999.90;;;;;;;29.85;44.13;98219.09;5048666;28;20065;-65
2021/07/19 10:32:37;;;;;;;1999.90;999.90;;;;;;;29.43;45.56;98222.13;5047512;28;20053;-64
2021/07/19 10:35:06;;;;;;;1999.90;999.90;;;;;;;28.56;47.40;98235.28;5048125;28;20400;-65
2021/07/19 10:37:55;;;;;;;1999.90;999.90;;;;;;;27.77;49.60;98220.38;5046797;28;20255;-64
2021/07/19 10:40:28;;;;;;;1999.90;999.90;;;;;;;26.89;51.08;98208.69;5046105;28;20118;-64
2021/07/19 10:43:09;;;;;;;1999.90;999.90;;;;;;;26.75;51.71;98217.50;5047863;28;20416;-65
2021/07/19 10:45:37;;;;;;;;;;;;;;;27.45;50.91;98212.69;5048354;28;20056;-66
2021/07/19 10:48:04;;;;;;;1999.90;999.90;;;;;;;28.84;45.96;98221.50;5046383;28;20384;-66
2021/07/19 10:50:37;;;;;;;1999.90;999.90;;;;;;;27.65;45.08;98224.75;5046906;28;20147;-66
2021/07/19 10:53:15;;;;;;;1999.90;999.90;;;;;;;27.31;47.88;98216.66;5036006;28;20049;-65
2021/07/19 10:55:42;;;;;;;1999.90;999.90;;;;;;;28.30;48.76;98211.69;5048147;28;20081;-65
2021/07/19 10:58:18;;;;;;;1999.90;999.90;;;;;;;27.35;49.54;98215.34;5046472;28;20092;-66
2021/07/19 11:00:46;;;;;;;1999.90;999.90;;;;;;;26.94;49.84;98204.53;5047189;28;20099;-66
2021/07/19 11:03:15;;;;;;;1999.90;999.90;;;;;;;27.09;50.32;98199.34;5047786;28;20118;-66